createdAt,value
2023-05-05T00:02:22.263Z,48.89
2023-05-05T00:07:24.367Z,48.78
2023-05-05T00:12:26.198Z,49.65
2023-05-05T00:17:28.153Z,49.44
2023-05-05T00:22:30.070Z,49.26
2023-05-05T00:27:32.110Z,49.73
2023-05-05T00:32:33.856Z,49.78
2023-05-05T00:37:36.284Z,50.23
2023-05-05T00:42:42.743Z,50.47
2023-05-05T00:48:05.953Z,50.56
2023-05-05T00:53:08.033Z,50.87
2023-05-05T00:58:10.345Z,50.93
2023-05-05T01:03:15.673Z,51.44
2023-05-05T01:08:38.509Z,51.07
2023-05-05T01:14:17.506Z,51.44
2023-05-05T01:19:34.301Z,51.68
2023-05-05T01:25:01.682Z,51.49
2023-05-05T01:30:15.568Z,51.65
2023-05-05T01:35:27.638Z,51.61
2023-05-05T01:40:33.879Z,51.92
2023-05-05T01:45:39.184Z,52.02
2023-05-05T01:50:43.094Z,51.91
2023-05-05T01:55:47.132Z,51.94
2023-05-05T02:06:07.817Z,52.43
2023-05-05T02:11:11.468Z,52.33
2023-05-05T02:16:14.340Z,52.38
2023-05-05T02:21:18.363Z,52.52
2023-05-05T02:26:24.023Z,52.81
2023-05-05T02:31:27.583Z,52.55
2023-05-05T02:36:33.966Z,53.01
2023-05-05T02:41:39.757Z,52.73
2023-05-05T02:46:43.389Z,53.35
2023-05-05T02:51:45.444Z,53.38
2023-05-05T02:56:51.793Z,53.24
2023-05-05T03:02:32.951Z,53.46
2023-05-05T03:07:41.304Z,53.17
2023-05-05T03:12:57.062Z,53.44
2023-05-05T03:18:00.724Z,53.39
2023-05-05T03:23:03.293Z,53.82
2023-05-05T03:28:05.288Z,54.02
2023-05-05T03:33:08.620Z,53.98
2023-05-05T03:38:10.836Z,53.61
2023-05-05T03:43:12.739Z,54.00
2023-05-05T03:48:14.776Z,54.54
2023-05-05T03:53:16.777Z,53.96
2023-05-05T03:58:19.173Z,55.25
2023-05-05T04:03:21.341Z,54.62
2023-05-05T04:08:23.550Z,54.46
2023-05-05T04:13:25.496Z,55.89
2023-05-05T04:18:27.508Z,56.95
2023-05-05T04:23:29.562Z,57.21
2023-05-05T04:28:31.411Z,57.15
2023-05-05T04:33:33.494Z,58.43
2023-05-05T04:38:35.424Z,57.55
2023-05-05T04:43:37.543Z,55.88
2023-05-05T04:48:39.390Z,55.11
2023-05-05T04:53:41.362Z,55.18
2023-05-05T04:58:43.447Z,55.85
2023-05-05T05:03:46.203Z,55.01
2023-05-05T05:08:48.306Z,55.06
2023-05-05T05:13:50.515Z,56.16
2023-05-05T05:18:52.642Z,55.42
2023-05-05T05:23:54.704Z,55.59
2023-05-05T05:28:56.686Z,55.46
2023-05-05T05:33:58.663Z,55.86
2023-05-05T05:39:00.652Z,55.67
2023-05-05T05:44:02.692Z,55.37
2023-05-05T05:49:04.711Z,55.61
2023-05-05T05:54:06.828Z,55.61
2023-05-05T05:59:10.436Z,57.12
2023-05-05T06:04:13.790Z,57.39
2023-05-05T06:09:16.027Z,56.38
2023-05-05T06:14:19.499Z,57.70
2023-05-05T06:19:22.110Z,56.21
2023-05-05T06:24:24.318Z,54.95
2023-05-05T06:29:28.928Z,55.43
2023-05-05T06:34:31.080Z,53.72
2023-05-05T06:39:33.091Z,53.20
2023-05-05T06:44:36.733Z,52.15
2023-05-05T06:49:38.754Z,51.49
2023-05-05T06:54:40.963Z,51.17
2023-05-05T06:59:43.030Z,50.47
2023-05-05T07:04:45.168Z,49.19
2023-05-05T07:09:47.357Z,49.65
2023-05-05T07:14:49.503Z,46.54
2023-05-05T07:19:52.020Z,46.45
2023-05-05T07:24:54.089Z,44.84
2023-05-05T07:29:56.141Z,44.13
2023-05-05T07:34:58.230Z,42.46
2023-05-05T07:40:00.189Z,42.21
2023-05-05T07:45:02.548Z,42.48
2023-05-05T07:50:05.121Z,41.76
2023-05-05T07:55:07.322Z,40.25
2023-05-05T08:00:10.635Z,38.95
2023-05-05T08:05:13.009Z,39.27
2023-05-05T08:10:15.132Z,39.71
2023-05-05T08:15:17.235Z,39.42
2023-05-05T08:20:21.115Z,38.05
2023-05-05T08:25:23.264Z,40.50
2023-05-05T08:30:25.419Z,39.67
2023-05-05T08:35:27.547Z,39.88
2023-05-05T08:40:34.553Z,39.75
2023-05-05T08:45:37.677Z,37.76
2023-05-05T08:50:40.669Z,38.11
2023-05-05T08:55:52.621Z,38.10
2023-05-05T09:00:56.064Z,37.16
2023-05-05T09:05:58.764Z,35.79
2023-05-05T09:11:02.210Z,35.01
2023-05-05T09:16:04.523Z,35.81
2023-05-05T09:21:27.013Z,33.23
2023-05-05T09:26:33.597Z,32.95
2023-05-05T09:31:38.114Z,33.66
2023-05-05T09:36:49.998Z,34.11
2023-05-05T09:41:53.154Z,34.44
2023-05-05T09:46:56.048Z,33.32
2023-05-05T09:51:58.268Z,33.00
2023-05-05T09:57:00.280Z,33.51
2023-05-05T10:02:15.989Z,33.86
2023-05-05T10:07:27.810Z,32.34
2023-05-05T10:12:31.646Z,32.65
2023-05-05T10:17:58.335Z,33.24
2023-05-05T10:23:08.555Z,33.70
2023-05-05T10:28:16.384Z,33.43
2023-05-05T10:33:34.479Z,32.26
2023-05-05T10:38:37.586Z,33.26
2023-05-05T10:43:40.669Z,32.80
2023-05-05T10:49:15.305Z,33.09
2023-05-05T10:54:37.152Z,33.29
2023-05-05T10:59:41.786Z,33.78
2023-05-05T11:04:44.095Z,31.84
2023-05-05T11:09:57.434Z,32.11
2023-05-05T11:15:21.362Z,33.28
2023-05-05T11:20:49.931Z,33.33
2023-05-05T11:25:53.202Z,32.37
2023-05-05T11:30:55.371Z,33.52
2023-05-05T11:35:59.021Z,36.54
2023-05-05T11:41:12.732Z,35.70
2023-05-05T11:46:17.367Z,36.23
2023-05-05T11:51:19.974Z,33.62
2023-05-05T11:56:24.750Z,33.60
2023-05-05T12:01:27.132Z,36.21
2023-05-05T12:06:33.347Z,36.02
2023-05-05T12:11:35.428Z,35.91
2023-05-05T12:16:38.790Z,35.96
2023-05-05T12:21:40.955Z,34.97
2023-05-05T12:26:43.397Z,34.62
2023-05-05T12:31:45.562Z,34.86
2023-05-05T12:36:47.974Z,34.23
2023-05-05T12:41:51.031Z,34.38
2023-05-05T12:46:59.487Z,35.29
2023-05-05T12:52:05.982Z,35.60
2023-05-05T12:57:12.254Z,35.44
2023-05-05T13:02:15.800Z,34.90
2023-05-05T13:07:20.036Z,35.49
2023-05-05T13:12:23.314Z,35.60
2023-05-05T13:17:27.341Z,35.09
2023-05-05T13:22:29.594Z,35.24
2023-05-05T13:27:31.949Z,33.69
2023-05-05T13:32:34.269Z,34.67
2023-05-05T13:37:36.461Z,34.08
2023-05-05T13:42:38.781Z,34.64
2023-05-05T13:47:42.276Z,36.26
2023-05-05T13:52:46.514Z,34.33
2023-05-05T13:57:49.233Z,34.54
2023-05-05T14:02:52.849Z,34.57
2023-05-05T14:07:56.542Z,36.07
2023-05-05T14:12:59.062Z,35.72
2023-05-05T14:18:02.182Z,35.43
2023-05-05T14:23:04.752Z,35.54
2023-05-05T14:28:07.695Z,35.58
2023-05-05T14:33:12.745Z,36.67
2023-05-05T14:38:14.974Z,36.11
2023-05-05T14:43:19.631Z,36.55
2023-05-05T14:48:23.244Z,36.27
2023-05-05T14:53:25.368Z,35.89
2023-05-05T14:58:27.697Z,38.02
2023-05-05T15:03:34.522Z,37.30
2023-05-05T15:08:39.446Z,38.01
2023-05-05T15:14:06.095Z,37.39
2023-05-05T15:19:10.412Z,37.69
2023-05-05T15:24:12.849Z,37.63
2023-05-05T15:29:15.101Z,39.20
2023-05-05T15:34:17.376Z,38.42
2023-05-05T15:39:19.986Z,39.05
2023-05-05T15:44:22.396Z,38.89
2023-05-05T15:49:24.739Z,38.35
2023-05-05T15:54:27.675Z,39.11
2023-05-05T15:59:30.246Z,39.23
2023-05-05T16:04:32.798Z,40.52
2023-05-05T16:09:38.834Z,41.14
2023-05-05T16:14:41.278Z,40.99
2023-05-05T16:19:43.907Z,41.25
2023-05-05T16:24:46.247Z,40.91
2023-05-05T16:29:48.522Z,40.91
2023-05-05T16:34:51.003Z,40.44
2023-05-05T16:39:53.781Z,41.77
2023-05-05T16:44:56.915Z,41.72
2023-05-05T16:49:59.202Z,42.53
2023-05-05T16:55:01.436Z,42.03
2023-05-05T17:00:05.289Z,42.57
2023-05-05T17:05:08.072Z,43.54
2023-05-05T17:10:11.496Z,42.78
2023-05-05T17:15:14.092Z,43.41
2023-05-05T17:20:16.784Z,43.71
2023-05-05T17:25:19.381Z,45.02
2023-05-05T17:30:21.802Z,46.43
2023-05-05T17:35:24.084Z,45.84
2023-05-05T17:45:44.308Z,46.89
2023-05-05T17:50:50.439Z,47.12
2023-05-05T17:55:52.857Z,48.12
2023-05-05T18:00:55.205Z,47.06
2023-05-05T18:05:57.934Z,49.98
2023-05-05T18:11:00.110Z,48.08
2023-05-05T18:16:02.306Z,49.61
2023-05-05T18:21:04.583Z,48.93
2023-05-05T18:26:07.624Z,48.14
2023-05-05T18:31:09.941Z,50.32
2023-05-05T18:36:12.412Z,50.85
2023-05-05T18:41:15.829Z,49.58
2023-05-05T18:46:19.807Z,51.53
2023-05-05T18:51:23.207Z,52.00
2023-05-05T18:56:28.969Z,50.63
2023-05-05T19:01:33.495Z,51.80
2023-05-05T19:06:39.842Z,50.52
2023-05-05T19:11:44.442Z,51.91
2023-05-05T19:27:58.235Z,51.42
2023-05-05T19:40:24.824Z,51.62
2023-05-05T19:57:15.879Z,53.03
2023-05-05T20:02:17.990Z,53.29
2023-05-05T20:07:20.469Z,52.90
2023-05-05T20:12:23.890Z,52.67
2023-05-05T20:17:26.683Z,53.36
2023-05-05T20:22:29.597Z,54.54
2023-05-05T20:27:34.093Z,54.26
2023-05-05T20:32:39.002Z,54.68
2023-05-05T20:37:42.366Z,53.85
2023-05-05T20:42:44.874Z,53.65
2023-05-05T20:47:47.474Z,54.75
2023-05-05T20:52:50.267Z,53.68
2023-05-05T20:57:52.369Z,54.70
2023-05-05T21:02:54.707Z,55.00
2023-05-05T21:07:58.539Z,55.41
2023-05-05T21:13:03.191Z,54.98
2023-05-05T21:18:05.985Z,55.95
2023-05-05T21:23:08.077Z,55.21
2023-05-05T21:28:10.319Z,55.63
2023-05-05T21:33:12.634Z,56.24
2023-05-05T21:38:15.124Z,57.12
2023-05-05T21:43:17.448Z,56.72
2023-05-05T21:48:20.602Z,56.11
2023-05-05T21:53:23.086Z,55.83
2023-05-05T21:58:25.518Z,56.74
2023-05-05T22:03:27.609Z,57.56
2023-05-05T22:08:29.807Z,57.02
2023-05-05T22:13:31.746Z,56.71
2023-05-05T22:18:34.674Z,57.35
2023-05-05T22:23:37.599Z,59.18
2023-05-05T22:28:39.642Z,58.60
2023-05-05T22:33:41.510Z,58.96
2023-05-05T22:38:43.496Z,58.86
2023-05-05T22:43:45.629Z,58.74
2023-05-05T22:48:47.653Z,60.01
2023-05-05T22:53:49.549Z,59.48
2023-05-05T22:58:51.580Z,59.27
2023-05-05T23:03:53.489Z,58.15
2023-05-05T23:08:55.580Z,58.96
2023-05-05T23:13:57.426Z,58.16
2023-05-05T23:18:59.395Z,58.79
2023-05-05T23:24:01.355Z,58.91
2023-05-05T23:29:03.275Z,59.05
2023-05-05T23:34:05.212Z,59.17
2023-05-05T23:39:07.765Z,59.52
2023-05-05T23:44:09.727Z,60.23
2023-05-05T23:49:11.698Z,61.65
2023-05-05T23:54:13.646Z,61.83
2023-05-05T23:59:15.669Z,61.70
